ZSOFZSSS

Guest
Details From ZSOF - LUOGANG
To ZSSS - HONGQIAO INTL
Flight Number -
Tags generated
Created
Modified
Stats Distance 211 nm / 390 km
Max Altitude 25,900 ft / 7,894 m
Waypoints 4
Social Downloads 1
Likes 0
Share VATSIM

Download

Looking for another format? Having issues loading an existing format? Contact us
Advertisement - Login to hide

Notes

Basic altitude profile: - Ascent Rate: 2500ft/min - Ascent Speed: 250kts - Cruise Altitude: 35000ft - Cruise Speed: 420kts - Descent Rate: 1500ft/min - Descent Speed: 250kts

Route

ZSOF GS R343 ESBAG ZSSS

ID Type Via Altitude Latitude Longitude Leg Dist Tot Dist Heading (true) Name
O ZSOF APT - 0 ft / 0 m 31.78002˚ 117.29871˚ - 0 nm - LUOGANG
GS NDB - 25,900 ft / 7,894 m 31.63667˚ 119.04333˚ 89 nm 89 nm 95° / 96° LISHUI NDB
ESBAG FIX R343 (AWY-HI) 19,000 ft / 5,791 m 31.62000˚ 119.67667˚ 32 nm 121 nm 92° / 92° -
O ZSSS APT - 0 ft / 0 m 31.19787˚ 121.33632˚ 88 nm 210 nm 106° / 107° HONGQIAO INTL

Altitude Profile

Advertisement - Login to hide

Weather


0- 5 10 15 20 25 30 35+ Temperature / ° C

Clouds and Precipitation
Forecast for 2017-12-12 06:00 UTC. Updated an hour ago

Ground ~20,000 ft ~40,000 ft Winds

ZSOF

Details ICAO ZSOF (HFE)
Name LUOGANG
Region China
Timezone Asia/Shanghai (UTC+8.0)
Stats Elevation 108 ft / 33 m (AMSL)
Location 31.780018° 117.298714°
Runways 1
Magnetic Variation 5.278° W

METAR

ZSOF 120400Z 10005MPS 070V130 CAVOK 08/M01 Q1028 NOSIG

Decode

TAF

Not found

Departure Runways

ID Width Length Bearing (true) Bearing (mag) Surface Threshold Offset Overrun Length
14 164 ft / 50 m 9,853 ft / 3,003 m 135.43° 140.71° Concrete 0 ft / 0 m 165 ft / 50 m
32 164 ft / 50 m 9,853 ft / 3,003 m 315.44° 320.72° Concrete 0 ft / 0 m 165 ft / 50 m

ZSSS

Details ICAO ZSSS (SHA)
Name HONGQIAO INTL
Region China
Timezone Asia/Shanghai (UTC+8.0)
Stats Elevation 10 ft / 3 m (AMSL)
Location 31.197875° 121.336319°
Runways 1
Magnetic Variation 5.916° W

METAR

ZSSS 120430Z VRB03G10MPS CAVOK 10/M01 Q1029 NOSIG

Decode

TAF

Not found

Destination Runways

ID Width Length Bearing (true) Bearing (mag) Surface Threshold Offset Overrun Length
18 190 ft / 58 m 11,234 ft / 3,424 m 177.21° 183.13° Asphalt 657 ft / 200 m 520 ft / 159 m
36 190 ft / 58 m 11,234 ft / 3,424 m 357.21° 3.13° Asphalt 657 ft / 200 m 520 ft / 159 m

Approach Navaids

Runway Type Ident Frequency Range Bearing (true) Bearing (mag) Slope Elevation
18 Localiser IPK 109.10 MHz 18 nm / 33 km 177.03° 182.95° - 10 ft / 3 m (AMSL)
18 Glidescope IPK 109.10 MHz 10 nm / 19 km 177.21° 183.13° 3.00° 8 ft / 2 m (AMSL)
36 Localiser IWB 110.30 MHz 18 nm / 33 km 356.95° 2.86° - 8 ft / 2 m (AMSL)
36 Glidescope IWB 110.30 MHz 10 nm / 19 km 357.21° 3.13° 3.00° 10 ft / 3 m (AMSL)